createdAt,value
2018-08-13T00:01:02.902Z,9.90
2018-08-13T00:03:32.313Z,11.67
2018-08-13T00:06:00.829Z,13.97
2018-08-13T00:08:29.532Z,10.13
2018-08-13T00:10:58.193Z,9.63
2018-08-13T00:13:26.891Z,9.87
2018-08-13T00:15:55.649Z,9.97
2018-08-13T00:18:24.186Z,8.50
2018-08-13T00:20:52.804Z,9.20
2018-08-13T00:23:21.322Z,8.70
2018-08-13T00:25:50.225Z,8.80
2018-08-13T00:28:18.841Z,9.60
2018-08-13T00:30:47.368Z,9.10
2018-08-13T00:38:09.158Z,8.63
2018-08-13T00:40:37.732Z,9.20
2018-08-13T00:43:06.598Z,8.00
2018-08-13T00:45:35.799Z,8.57
2018-08-13T00:48:04.466Z,8.57
2018-08-13T00:50:33.002Z,8.67
2018-08-13T00:53:01.618Z,9.10
2018-08-13T00:55:30.720Z,7.83
2018-08-13T00:57:59.712Z,9.03
2018-08-13T01:00:28.237Z,10.13
2018-08-13T01:02:56.721Z,8.43
2018-08-13T01:05:25.902Z,8.50
2018-08-13T01:07:55.281Z,8.30
2018-08-13T01:10:23.819Z,9.10
2018-08-13T01:12:52.333Z,7.90
2018-08-13T01:15:21.276Z,8.98
2018-08-13T01:17:50.662Z,8.00
2018-08-13T01:20:20.735Z,8.67
2018-08-13T01:22:49.318Z,8.40
2018-08-13T01:25:19.070Z,8.00
2018-08-13T01:27:47.636Z,8.57
2018-08-13T01:31:53.429Z,8.70
2018-08-13T01:34:21.925Z,8.25
2018-08-13T01:36:50.914Z,8.30
2018-08-13T01:39:20.096Z,8.70
2018-08-13T01:41:48.594Z,8.57
2018-08-13T01:44:17.460Z,8.70
2018-08-13T01:46:45.993Z,7.33
2018-08-13T01:54:09.162Z,10.90
2018-08-13T01:56:37.675Z,8.20
2018-08-13T01:59:06.677Z,8.50
2018-08-13T02:01:35.216Z,9.47
2018-08-13T02:04:03.794Z,8.57
2018-08-13T02:06:32.283Z,8.28
2018-08-13T02:09:00.892Z,7.73
2018-08-13T02:11:29.387Z,16.57
2018-08-13T02:13:57.991Z,9.27
2018-08-13T02:16:27.105Z,8.45
2018-08-13T02:18:55.613Z,8.07
2018-08-13T02:21:24.110Z,7.90
2018-08-13T02:23:52.625Z,7.77
2018-08-13T02:26:21.150Z,7.33
2018-08-13T02:28:49.654Z,7.50
2018-08-13T02:31:18.219Z,11.20
2018-08-13T02:33:46.745Z,6.77
2018-08-13T02:41:12.647Z,7.47
2018-08-13T02:43:41.184Z,7.23
2018-08-13T02:46:09.854Z,7.47
2018-08-13T02:48:38.501Z,10.90
2018-08-13T02:51:07.030Z,8.10
2018-08-13T02:53:35.530Z,8.60
2018-08-13T02:56:04.114Z,7.73
2018-08-13T02:58:32.625Z,7.87
2018-08-13T03:01:01.901Z,7.43
2018-08-13T03:03:30.710Z,7.58
2018-08-13T03:05:59.221Z,7.50
2018-08-13T03:08:27.709Z,9.40
2018-08-13T03:10:56.238Z,9.53
2018-08-13T03:13:24.777Z,7.20
2018-08-13T03:15:53.313Z,7.00
2018-08-13T03:18:21.880Z,7.93
2018-08-13T03:20:50.445Z,9.43
2018-08-13T03:23:19.019Z,8.30
2018-08-13T03:25:47.947Z,8.98
2018-08-13T03:33:09.136Z,9.37
2018-08-13T03:35:37.820Z,10.07
2018-08-13T03:38:06.573Z,9.33
2018-08-13T03:40:35.212Z,14.83
2018-08-13T03:43:03.737Z,13.70
2018-08-13T03:45:32.221Z,11.80
2018-08-13T03:48:01.377Z,9.33
2018-08-13T03:50:30.022Z,8.45
2018-08-13T03:52:58.551Z,8.95
2018-08-13T03:55:27.098Z,8.57
2018-08-13T03:57:55.661Z,9.40
2018-08-13T04:00:24.158Z,9.60
2018-08-13T04:02:53.005Z,9.17
2018-08-13T04:05:21.506Z,8.40
2018-08-13T04:07:50.074Z,8.67
2018-08-13T04:10:19.705Z,8.43
2018-08-13T04:12:48.311Z,8.90
2018-08-13T04:15:17.540Z,10.70
2018-08-13T04:17:46.242Z,8.97
2018-08-13T04:25:13.174Z,9.30
2018-08-13T04:27:42.001Z,9.33
2018-08-13T04:30:14.587Z,9.73
2018-08-13T04:32:44.134Z,9.40
2018-08-13T04:35:12.651Z,8.80
2018-08-13T04:37:42.329Z,11.67
2018-08-13T04:40:12.873Z,10.10
2018-08-13T04:42:42.296Z,8.50
2018-08-13T04:45:11.310Z,13.83
2018-08-13T04:47:40.272Z,8.87
2018-08-13T04:50:09.980Z,10.23
2018-08-13T04:52:38.921Z,9.08
2018-08-13T04:55:08.734Z,9.63
2018-08-13T04:57:37.250Z,9.30
2018-08-13T05:05:00.252Z,12.20
2018-08-13T05:07:28.878Z,8.97
2018-08-13T05:09:57.963Z,7.40
2018-08-13T05:12:27.066Z,10.43
2018-08-13T05:14:55.590Z,7.90
2018-08-13T05:17:24.137Z,10.60
2018-08-13T05:19:52.658Z,13.27
2018-08-13T05:22:21.205Z,8.18
2018-08-13T05:24:49.769Z,8.23
2018-08-13T05:27:18.331Z,8.27
2018-08-13T05:29:46.852Z,8.10
2018-08-13T05:37:11.901Z,8.57
2018-08-13T05:39:40.557Z,8.15
2018-08-13T05:42:09.555Z,8.33
2018-08-13T05:44:38.121Z,8.23
2018-08-13T05:47:06.837Z,8.10
2018-08-13T05:49:35.759Z,9.60
2018-08-13T05:52:04.446Z,12.90
2018-08-13T05:54:33.018Z,7.72
2018-08-13T05:57:01.549Z,7.95
2018-08-13T05:59:30.545Z,9.10
2018-08-13T06:01:59.105Z,8.03
2018-08-13T06:04:27.610Z,9.57
2018-08-13T06:06:56.410Z,10.07
2018-08-13T06:09:25.578Z,7.60
2018-08-13T06:11:54.259Z,9.10
2018-08-13T06:14:22.983Z,9.83
2018-08-13T06:16:51.546Z,7.77
2018-08-13T06:19:20.773Z,7.00
2018-08-13T06:21:49.868Z,7.50
2018-08-13T06:24:19.047Z,6.57
2018-08-13T06:26:47.821Z,10.50
2018-08-13T06:29:17.519Z,5.55
2018-08-13T06:31:46.005Z,6.07
2018-08-13T06:39:12.873Z,4.83
2018-08-13T06:41:41.454Z,3.80
2018-08-13T06:44:09.973Z,3.80
2018-08-13T06:46:38.519Z,6.70
2018-08-13T06:49:07.410Z,3.83
2018-08-13T06:51:35.922Z,5.40
2018-08-13T06:54:04.783Z,4.00
2018-08-13T06:56:33.386Z,3.20
2018-08-13T06:59:01.903Z,4.00
2018-08-13T07:01:31.066Z,4.78
2018-08-13T07:03:59.659Z,5.00
2018-08-13T07:06:28.241Z,5.28
2018-08-13T07:08:57.477Z,5.30
2018-08-13T07:11:26.071Z,3.80
2018-08-13T07:13:54.670Z,2.50
2018-08-13T07:16:23.766Z,4.05
2018-08-13T07:18:52.347Z,2.57
2018-08-13T07:21:20.885Z,2.45
2018-08-13T07:23:50.869Z,2.77
2018-08-13T07:26:19.937Z,2.70
2018-08-13T07:28:48.541Z,2.30
2018-08-13T07:31:18.008Z,2.23
2018-08-13T07:33:46.661Z,11.53
2018-08-13T07:46:08.467Z,6.33
2018-08-13T07:48:36.985Z,2.37
2018-08-13T07:51:05.581Z,3.43
2018-08-13T07:53:34.132Z,2.52
2018-08-13T07:56:02.613Z,2.30
2018-08-13T07:58:31.285Z,2.57
2018-08-13T08:00:59.800Z,2.80
2018-08-13T08:03:28.471Z,2.40
2018-08-13T08:05:57.654Z,3.25
2018-08-13T08:08:26.321Z,2.57
2018-08-13T08:10:55.329Z,3.70
2018-08-13T08:13:23.861Z,2.60
2018-08-13T08:15:52.391Z,2.50
2018-08-13T08:18:20.873Z,2.10
2018-08-13T08:20:49.385Z,2.13
2018-08-13T08:23:17.865Z,1.70
2018-08-13T08:25:47.175Z,1.87
2018-08-13T08:28:18.182Z,1.70
2018-08-13T08:30:47.108Z,2.30
2018-08-13T08:38:09.408Z,6.57
2018-08-13T08:40:38.073Z,3.23
2018-08-13T08:43:08.162Z,3.27
2018-08-13T08:45:36.731Z,1.50
2018-08-13T08:48:08.091Z,1.30
2018-08-13T08:50:37.587Z,1.63
2018-08-13T08:53:06.189Z,3.13
2018-08-13T08:55:34.972Z,1.27
2018-08-13T08:58:03.784Z,1.20
2018-08-13T09:00:32.441Z,3.25
2018-08-13T09:03:00.997Z,1.33
2018-08-13T09:05:29.581Z,1.30
2018-08-13T09:08:00.051Z,2.87
2018-08-13T09:10:28.573Z,2.00
2018-08-13T09:12:58.453Z,6.53
2018-08-13T09:15:27.070Z,1.40
2018-08-13T09:18:10.473Z,1.10
2018-08-13T09:20:51.321Z,1.63
2018-08-13T09:23:31.325Z,2.00
2018-08-13T09:26:11.148Z,1.73
2018-08-13T09:28:50.726Z,6.43
2018-08-13T09:31:32.253Z,2.70
2018-08-13T09:34:30.753Z,1.57
2018-08-13T09:36:59.233Z,3.40
2018-08-13T09:39:27.713Z,4.70
2018-08-13T09:41:57.805Z,1.33
2018-08-13T09:44:26.306Z,2.67
2018-08-13T09:46:55.428Z,1.47
2018-08-13T09:49:24.506Z,3.67
2018-08-13T09:51:52.976Z,4.57
2018-08-13T09:54:21.737Z,3.42
2018-08-13T09:56:50.285Z,1.87
2018-08-13T09:59:18.846Z,2.00
2018-08-13T10:01:47.401Z,1.87
2018-08-13T10:04:18.273Z,2.20
2018-08-13T10:06:47.802Z,1.50
2018-08-13T10:09:18.811Z,2.35
2018-08-13T10:11:47.422Z,1.10
2018-08-13T10:19:09.832Z,2.40
2018-08-13T10:21:38.553Z,7.97
2018-08-13T10:24:07.061Z,3.13
2018-08-13T10:26:37.096Z,1.65
2018-08-13T10:29:05.689Z,5.40
2018-08-13T10:31:34.189Z,2.27
2018-08-13T10:34:03.509Z,2.50
2018-08-13T10:36:32.153Z,5.50
2018-08-13T10:39:00.685Z,3.03
2018-08-13T10:41:30.347Z,2.37
2018-08-13T10:43:59.409Z,7.53
2018-08-13T10:46:28.002Z,8.07
2018-08-13T10:48:57.183Z,2.90
2018-08-13T10:51:25.711Z,2.83
2018-08-13T10:53:54.808Z,3.13
2018-08-13T10:56:25.327Z,10.23
2018-08-13T10:58:54.932Z,5.40
2018-08-13T11:01:24.119Z,3.07
2018-08-13T11:03:53.502Z,3.30
2018-08-13T11:06:22.038Z,6.73
2018-08-13T11:08:50.528Z,3.03
2018-08-13T11:11:19.110Z,2.93
2018-08-13T11:13:48.686Z,3.20
2018-08-13T11:16:17.777Z,3.43
2018-08-13T11:18:46.482Z,3.23
2018-08-13T11:26:09.915Z,2.97
2018-08-13T11:28:38.594Z,3.40
2018-08-13T11:31:07.109Z,3.83
2018-08-13T11:33:35.665Z,4.70
2018-08-13T11:36:06.494Z,3.10
2018-08-13T11:38:35.020Z,5.27
2018-08-13T11:41:03.902Z,3.50
2018-08-13T11:43:32.425Z,3.10
2018-08-13T11:46:00.998Z,3.53
2018-08-13T11:48:29.757Z,3.40
2018-08-13T11:50:58.250Z,4.20
2018-08-13T11:53:26.786Z,5.20
2018-08-13T11:55:55.396Z,3.40
2018-08-13T11:58:23.956Z,3.60
2018-08-13T12:00:53.103Z,3.55
2018-08-13T12:03:21.929Z,3.57
2018-08-13T12:05:50.934Z,3.33
2018-08-13T12:08:19.511Z,3.77
2018-08-13T12:10:48.352Z,2.70
2018-08-13T12:13:17.441Z,4.47
2018-08-13T12:15:46.795Z,3.13
2018-08-13T12:23:14.674Z,3.07
2018-08-13T12:25:43.287Z,11.60
2018-08-13T12:28:11.992Z,3.23
2018-08-13T12:30:41.249Z,3.22
2018-08-13T12:33:09.822Z,7.50
2018-08-13T12:35:38.463Z,3.43
2018-08-13T12:38:07.066Z,2.57
2018-08-13T12:40:36.443Z,2.80
2018-08-13T12:43:05.110Z,2.97
2018-08-13T12:45:33.725Z,2.72
2018-08-13T12:48:02.247Z,2.90
2018-08-13T12:50:30.862Z,3.27
2018-08-13T12:52:59.489Z,3.13
2018-08-13T12:55:28.532Z,9.73
2018-08-13T12:57:57.101Z,2.90
2018-08-13T13:00:25.702Z,2.80
2018-08-13T13:02:54.229Z,3.30
2018-08-13T13:05:22.762Z,3.33
2018-08-13T13:07:51.731Z,3.53
2018-08-13T13:10:20.237Z,3.37
2018-08-13T13:12:48.699Z,3.30
2018-08-13T13:15:20.245Z,3.27
2018-08-13T13:17:49.615Z,3.30
2018-08-13T13:20:19.978Z,3.47
2018-08-13T13:22:49.077Z,3.20
2018-08-13T13:25:18.129Z,4.33
2018-08-13T13:27:46.713Z,3.17
2018-08-13T13:36:48.050Z,4.10
2018-08-13T13:39:18.172Z,3.23
2018-08-13T13:41:46.653Z,7.03
2018-08-13T13:49:08.261Z,16.63
2018-08-13T13:51:36.807Z,3.67
2018-08-13T13:54:05.386Z,7.60
2018-08-13T13:56:34.345Z,6.67
2018-08-13T13:59:02.873Z,4.77
2018-08-13T14:01:31.637Z,6.80
2018-08-13T14:04:00.287Z,4.10
2018-08-13T14:06:29.874Z,9.50
2018-08-13T14:08:59.115Z,4.37
2018-08-13T14:11:27.669Z,6.17
2018-08-13T14:13:56.255Z,9.53
2018-08-13T14:16:24.765Z,5.58
2018-08-13T14:18:53.460Z,11.67
2018-08-13T14:21:22.266Z,18.20
2018-08-13T14:23:50.753Z,5.77
2018-08-13T14:26:19.812Z,9.30
2018-08-13T14:28:48.403Z,5.00
2018-08-13T14:31:18.245Z,3.70
2018-08-13T14:33:46.863Z,12.03
2018-08-13T14:41:11.463Z,3.40
2018-08-13T14:43:40.010Z,5.30
2018-08-13T14:46:09.306Z,13.18
2018-08-13T14:48:37.941Z,4.33
2018-08-13T14:51:07.694Z,5.70
2018-08-13T14:53:37.189Z,19.87
2018-08-13T14:56:06.293Z,36.63
2018-08-13T14:58:34.857Z,26.23
2018-08-13T15:01:03.517Z,29.57
2018-08-13T15:03:32.877Z,22.90
2018-08-13T15:06:01.429Z,22.73
2018-08-13T15:08:29.954Z,24.00
2018-08-13T15:10:58.545Z,18.35
2018-08-13T15:13:27.109Z,18.63
2018-08-13T15:15:55.547Z,18.47
2018-08-13T15:18:24.150Z,14.33
2018-08-13T15:20:52.694Z,18.50
2018-08-13T15:23:21.606Z,17.05
2018-08-13T15:25:50.722Z,19.60
2018-08-13T15:28:19.266Z,12.63
2018-08-13T15:30:47.758Z,13.70
2018-08-13T15:33:17.396Z,11.23
2018-08-13T15:35:45.938Z,15.23
2018-08-13T15:43:12.973Z,18.57
2018-08-13T15:45:41.482Z,10.35
2018-08-13T15:48:10.046Z,13.20
2018-08-13T15:50:38.749Z,13.10
2018-08-13T15:53:07.258Z,16.90
2018-08-13T15:55:36.465Z,14.10
2018-08-13T15:58:06.041Z,17.70
2018-08-13T16:00:34.645Z,17.17
2018-08-13T16:03:03.209Z,15.83
2018-08-13T16:05:32.417Z,12.63
2018-08-13T16:08:00.983Z,14.00
2018-08-13T16:10:30.222Z,12.37
2018-08-13T16:12:59.278Z,14.43
2018-08-13T16:15:27.918Z,10.73
2018-08-13T16:17:56.469Z,15.38
2018-08-13T16:20:25.157Z,11.80
2018-08-13T16:22:53.738Z,11.10
2018-08-13T16:25:22.778Z,11.50
2018-08-13T16:27:51.722Z,12.10
2018-08-13T16:30:23.348Z,11.13
2018-08-13T16:32:52.121Z,10.03
2018-08-13T16:35:21.421Z,17.15
2018-08-13T16:37:50.245Z,10.47
2018-08-13T16:40:19.523Z,12.30
2018-08-13T16:42:48.573Z,11.30
2018-08-13T16:45:19.428Z,10.95
2018-08-13T16:47:48.094Z,11.20
2018-08-13T16:50:24.869Z,14.00
2018-08-13T16:52:53.797Z,13.00
2018-08-13T16:55:22.418Z,15.18
2018-08-13T16:57:50.943Z,9.70
2018-08-13T17:00:24.549Z,12.76
2018-08-13T17:02:53.253Z,9.20
2018-08-13T17:05:22.153Z,9.93
2018-08-13T17:07:50.945Z,11.83
2018-08-13T17:10:22.069Z,11.27
2018-08-13T17:12:51.415Z,13.43
2018-08-13T17:15:21.132Z,11.30
2018-08-13T17:17:51.577Z,11.87
2018-08-13T17:20:22.553Z,10.23
2018-08-13T17:22:51.133Z,10.13
2018-08-13T17:25:21.243Z,13.58
2018-08-13T17:27:50.670Z,11.50
2018-08-13T17:30:21.491Z,12.40
2018-08-13T17:32:51.339Z,11.00
2018-08-13T17:35:21.710Z,11.13
2018-08-13T17:37:50.595Z,13.03
2018-08-13T17:40:20.763Z,10.63
2018-08-13T17:42:49.542Z,12.60
2018-08-13T17:45:18.135Z,17.20
2018-08-13T17:47:46.759Z,11.80
2018-08-13T17:55:15.439Z,11.10
2018-08-13T17:57:44.462Z,11.50
2018-08-13T18:00:20.231Z,12.07
2018-08-13T18:02:48.829Z,12.97
2018-08-13T18:05:19.641Z,12.20
2018-08-13T18:07:48.834Z,12.63
2018-08-13T18:10:29.242Z,19.13
2018-08-13T18:12:59.082Z,14.53
2018-08-13T18:15:27.971Z,12.73
2018-08-13T18:17:56.524Z,13.75
2018-08-13T18:20:26.146Z,15.53
2018-08-13T18:22:54.683Z,18.70
2018-08-13T18:25:23.265Z,16.90
2018-08-13T18:27:52.794Z,20.37
2018-08-13T18:30:23.567Z,19.00
2018-08-13T18:32:52.487Z,19.80
2018-08-13T18:35:21.049Z,18.02
2018-08-13T18:37:49.652Z,15.03
2018-08-13T18:40:21.852Z,23.53
2018-08-13T18:42:50.616Z,16.00
2018-08-13T18:45:19.296Z,18.97
2018-08-13T18:47:48.629Z,15.37
2018-08-13T18:50:37.400Z,12.68
2018-08-13T18:53:05.941Z,11.33
2018-08-13T18:55:34.434Z,12.88
2018-08-13T18:58:03.170Z,12.10
2018-08-13T19:00:31.746Z,12.80
2018-08-13T19:03:01.595Z,11.53
2018-08-13T19:05:31.454Z,11.13
2018-08-13T19:08:00.272Z,11.83
2018-08-13T19:10:28.849Z,12.17
2018-08-13T19:12:57.524Z,11.40
2018-08-13T19:15:27.457Z,13.28
2018-08-13T19:18:01.737Z,9.60
2018-08-13T19:20:30.338Z,9.33
2018-08-13T19:22:58.902Z,10.87
2018-08-13T19:25:28.976Z,10.50
2018-08-13T19:27:57.833Z,9.35
2018-08-13T19:30:27.438Z,11.03
2018-08-13T19:32:57.290Z,10.40
2018-08-13T19:35:26.059Z,9.23
2018-08-13T19:37:54.746Z,9.40
2018-08-13T19:40:24.893Z,11.27
2018-08-13T19:42:54.620Z,14.43
2018-08-13T19:45:23.774Z,13.10
2018-08-13T19:47:53.195Z,13.00
2018-08-13T19:50:24.289Z,10.60
2018-08-13T19:52:52.921Z,10.03
2018-08-13T19:55:22.550Z,10.82
2018-08-13T19:57:51.090Z,13.50
2018-08-13T20:00:22.910Z,8.47
2018-08-13T20:02:52.753Z,11.37
2018-08-13T20:05:22.703Z,10.13
2018-08-13T20:07:52.233Z,17.50
2018-08-13T20:10:20.885Z,9.88
2018-08-13T20:12:49.899Z,11.43
2018-08-13T20:15:19.913Z,10.58
2018-08-13T20:17:48.557Z,11.00
2018-08-13T20:20:20.842Z,12.77
2018-08-13T20:22:50.108Z,9.83
2018-08-13T20:25:19.720Z,8.37
2018-08-13T20:27:49.451Z,8.50
2018-08-13T20:30:19.474Z,8.20
2018-08-13T20:32:49.317Z,10.60
2018-08-13T20:35:18.125Z,23.73
2018-08-13T20:37:46.778Z,9.13
2018-08-13T20:45:12.629Z,8.30
2018-08-13T20:47:41.481Z,8.73
2018-08-13T20:50:12.520Z,8.40
2018-08-13T20:52:41.610Z,9.70
2018-08-13T20:55:13.169Z,9.27
2018-08-13T20:57:42.363Z,7.83
2018-08-13T21:00:12.576Z,7.58
2018-08-13T21:02:41.576Z,8.33
2018-08-13T21:05:10.503Z,10.20
2018-08-13T21:07:39.069Z,9.80
2018-08-13T21:10:09.885Z,10.47
2018-08-13T21:12:38.582Z,9.15
2018-08-13T21:15:09.608Z,9.70
2018-08-13T21:17:39.773Z,8.67
2018-08-13T21:20:09.343Z,9.23
2018-08-13T21:22:39.005Z,8.77
2018-08-13T21:25:11.846Z,8.70
2018-08-13T21:27:41.057Z,9.60
2018-08-13T21:30:09.772Z,8.20
2018-08-13T21:32:39.546Z,13.93
2018-08-13T21:35:08.403Z,8.20
2018-08-13T21:37:36.939Z,8.63
2018-08-13T21:40:07.425Z,8.58
2018-08-13T21:42:35.957Z,8.60
2018-08-13T21:45:05.270Z,10.23
2018-08-13T21:47:33.850Z,7.85
2018-08-13T21:50:02.435Z,14.50
2018-08-13T21:52:31.059Z,7.53
2018-08-13T21:54:59.776Z,9.60
2018-08-13T21:57:28.274Z,9.33
2018-08-13T21:59:57.307Z,14.07
2018-08-13T22:02:25.930Z,13.65
2018-08-13T22:04:54.580Z,9.90
2018-08-13T22:07:23.116Z,16.33
2018-08-13T22:09:51.749Z,9.67
2018-08-13T22:12:21.038Z,15.80
2018-08-13T22:14:50.227Z,8.13
2018-08-13T22:17:18.953Z,16.77
2018-08-13T22:19:47.497Z,9.73
2018-08-13T22:22:17.402Z,13.90
2018-08-13T22:25:01.294Z,12.60
2018-08-13T22:27:29.874Z,11.18
2018-08-13T22:29:58.599Z,10.45
2018-08-13T22:32:27.561Z,14.03
2018-08-13T22:34:56.627Z,9.60
2018-08-13T22:37:25.251Z,12.07
2018-08-13T22:39:53.782Z,13.53
2018-08-13T22:42:22.297Z,10.13
2018-08-13T22:44:50.869Z,11.27
2018-08-13T22:47:20.268Z,12.87
2018-08-13T22:49:48.823Z,12.00
2018-08-13T22:52:17.398Z,9.80
2018-08-13T22:54:46.174Z,13.90
2018-08-13T23:02:13.282Z,12.83
2018-08-13T23:04:41.816Z,18.53
2018-08-13T23:07:10.401Z,19.52
2018-08-13T23:09:38.993Z,9.87
2018-08-13T23:12:09.066Z,10.05
2018-08-13T23:14:37.866Z,12.57
2018-08-13T23:17:07.061Z,8.30
2018-08-13T23:19:35.612Z,9.68
2018-08-13T23:22:04.313Z,9.60
2018-08-13T23:24:33.646Z,9.77
2018-08-13T23:27:02.327Z,7.20
2018-08-13T23:29:37.529Z,9.20
2018-08-13T23:32:06.580Z,7.20
2018-08-13T23:34:35.149Z,7.27
2018-08-13T23:37:04.190Z,8.10
2018-08-13T23:39:32.921Z,7.27
2018-08-13T23:42:01.601Z,7.17
2018-08-13T23:44:30.132Z,8.60
2018-08-13T23:46:58.639Z,6.40
2018-08-13T23:49:27.152Z,11.30
2018-08-13T23:51:55.705Z,7.33
2018-08-13T23:54:24.241Z,6.00
2018-08-13T23:56:52.785Z,6.97
2018-08-13T23:59:21.683Z,7.87
